sensor_id;sensor_type;location;lat;lon;timestamp;P1;durP1;ratioP1;P2;durP2;ratioP2
16804;SDS011;8520;50.102;20.010;2023-08-06T00:01:50;170.85;;;157.55;;
16804;SDS011;8520;50.102;20.010;2023-08-06T00:04:18;168.77;;;155.98;;
16804;SDS011;8520;50.102;20.010;2023-08-06T00:06:46;168.52;;;155.35;;
16804;SDS011;8520;50.102;20.010;2023-08-06T00:09:14;166.85;;;154.10;;
16804;SDS011;8520;50.102;20.010;2023-08-06T00:11:43;166.55;;;153.93;;
16804;SDS011;8520;50.102;20.010;2023-08-06T00:14:13;169.10;;;156.02;;
16804;SDS011;8520;50.102;20.010;2023-08-06T00:16:43;163.70;;;151.35;;
16804;SDS011;8520;50.102;20.010;2023-08-06T00:19:11;165.88;;;153.55;;
16804;SDS011;8520;50.102;20.010;2023-08-06T00:21:39;163.88;;;151.40;;
16804;SDS011;8520;50.102;20.010;2023-08-06T00:24:07;160.77;;;148.98;;
16804;SDS011;8520;50.102;20.010;2023-08-06T00:26:35;159.73;;;147.68;;
16804;SDS011;8520;50.102;20.010;2023-08-06T00:29:05;158.05;;;146.32;;
16804;SDS011;8520;50.102;20.010;2023-08-06T00:31:32;158.15;;;146.38;;
16804;SDS011;8520;50.102;20.010;2023-08-06T00:34:01;159.98;;;147.95;;
16804;SDS011;8520;50.102;20.010;2023-08-06T00:36:29;159.30;;;147.20;;
16804;SDS011;8520;50.102;20.010;2023-08-06T00:38:57;162.15;;;149.93;;
16804;SDS011;8520;50.102;20.010;2023-08-06T00:41:25;161.82;;;149.35;;
16804;SDS011;8520;50.102;20.010;2023-08-06T00:43:53;163.15;;;150.65;;
16804;SDS011;8520;50.102;20.010;2023-08-06T00:46:22;161.93;;;149.48;;
16804;SDS011;8520;50.102;20.010;2023-08-06T00:48:51;163.13;;;150.55;;
16804;SDS011;8520;50.102;20.010;2023-08-06T00:51:20;162.27;;;150.18;;
16804;SDS011;8520;50.102;20.010;2023-08-06T00:53:48;161.75;;;149.38;;
16804;SDS011;8520;50.102;20.010;2023-08-06T00:56:17;159.52;;;147.80;;
16804;SDS011;8520;50.102;20.010;2023-08-06T00:58:44;157.38;;;145.40;;
16804;SDS011;8520;50.102;20.010;2023-08-06T01:01:13;158.68;;;146.63;;
16804;SDS011;8520;50.102;20.010;2023-08-06T01:03:42;159.88;;;147.90;;
16804;SDS011;8520;50.102;20.010;2023-08-06T01:06:10;159.73;;;147.40;;
16804;SDS011;8520;50.102;20.010;2023-08-06T01:08:40;161.23;;;149.32;;
16804;SDS011;8520;50.102;20.010;2023-08-06T01:11:14;161.00;;;149.35;;
16804;SDS011;8520;50.102;20.010;2023-08-06T01:13:50;162.52;;;150.63;;
16804;SDS011;8520;50.102;20.010;2023-08-06T01:16:21;162.43;;;150.30;;
16804;SDS011;8520;50.102;20.010;2023-08-06T01:18:50;161.48;;;149.77;;
16804;SDS011;8520;50.102;20.010;2023-08-06T01:21:20;159.60;;;147.85;;
16804;SDS011;8520;50.102;20.010;2023-08-06T01:23:48;159.60;;;147.75;;
16804;SDS011;8520;50.102;20.010;2023-08-06T01:26:18;157.18;;;145.68;;
16804;SDS011;8520;50.102;20.010;2023-08-06T01:28:48;157.05;;;145.60;;
16804;SDS011;8520;50.102;20.010;2023-08-06T01:31:22;157.43;;;145.88;;
16804;SDS011;8520;50.102;20.010;2023-08-06T01:33:51;158.32;;;146.63;;
16804;SDS011;8520;50.102;20.010;2023-08-06T01:36:21;158.52;;;146.13;;
16804;SDS011;8520;50.102;20.010;2023-08-06T01:38:51;156.52;;;145.23;;
16804;SDS011;8520;50.102;20.010;2023-08-06T01:41:19;156.85;;;145.65;;
16804;SDS011;8520;50.102;20.010;2023-08-06T01:43:47;157.25;;;145.98;;
16804;SDS011;8520;50.102;20.010;2023-08-06T01:46:15;157.45;;;145.82;;
16804;SDS011;8520;50.102;20.010;2023-08-06T01:48:43;158.43;;;146.10;;
16804;SDS011;8520;50.102;20.010;2023-08-06T01:51:11;156.00;;;144.75;;
16804;SDS011;8520;50.102;20.010;2023-08-06T01:53:40;157.93;;;146.00;;
16804;SDS011;8520;50.102;20.010;2023-08-06T01:56:08;154.90;;;143.65;;
16804;SDS011;8520;50.102;20.010;2023-08-06T01:58:36;154.27;;;143.18;;
16804;SDS011;8520;50.102;20.010;2023-08-06T02:01:04;154.50;;;143.20;;
16804;SDS011;8520;50.102;20.010;2023-08-06T02:03:32;155.40;;;143.77;;
16804;SDS011;8520;50.102;20.010;2023-08-06T02:06:00;152.32;;;141.15;;
16804;SDS011;8520;50.102;20.010;2023-08-06T02:08:28;153.40;;;142.20;;
16804;SDS011;8520;50.102;20.010;2023-08-06T02:10:57;153.82;;;142.63;;
16804;SDS011;8520;50.102;20.010;2023-08-06T02:13:26;155.10;;;143.77;;
16804;SDS011;8520;50.102;20.010;2023-08-06T02:15:54;157.10;;;144.80;;
16804;SDS011;8520;50.102;20.010;2023-08-06T02:18:22;152.57;;;141.60;;
16804;SDS011;8520;50.102;20.010;2023-08-06T02:20:56;152.82;;;141.93;;
16804;SDS011;8520;50.102;20.010;2023-08-06T02:23:25;157.45;;;145.43;;
16804;SDS011;8520;50.102;20.010;2023-08-06T02:26:03;160.50;;;147.93;;
16804;SDS011;8520;50.102;20.010;2023-08-06T02:28:32;160.50;;;148.05;;
16804;SDS011;8520;50.102;20.010;2023-08-06T02:31:00;160.88;;;148.45;;
16804;SDS011;8520;50.102;20.010;2023-08-06T02:33:28;168.85;;;154.48;;
16804;SDS011;8520;50.102;20.010;2023-08-06T02:35:59;166.48;;;153.40;;
16804;SDS011;8520;50.102;20.010;2023-08-06T02:38:27;164.25;;;151.20;;
16804;SDS011;8520;50.102;20.010;2023-08-06T02:40:56;167.40;;;154.18;;
16804;SDS011;8520;50.102;20.010;2023-08-06T02:43:25;167.40;;;153.52;;
16804;SDS011;8520;50.102;20.010;2023-08-06T02:45:56;169.85;;;153.10;;
16804;SDS011;8520;50.102;20.010;2023-08-06T02:48:24;168.13;;;154.50;;
16804;SDS011;8520;50.102;20.010;2023-08-06T02:50:52;170.07;;;155.63;;
16804;SDS011;8520;50.102;20.010;2023-08-06T02:53:20;167.05;;;153.10;;
16804;SDS011;8520;50.102;20.010;2023-08-06T02:55:49;168.40;;;154.30;;
16804;SDS011;8520;50.102;20.010;2023-08-06T02:58:22;169.07;;;155.15;;
16804;SDS011;8520;50.102;20.010;2023-08-06T03:01:06;171.05;;;156.73;;
16804;SDS011;8520;50.102;20.010;2023-08-06T03:03:43;176.90;;;161.32;;
16804;SDS011;8520;50.102;20.010;2023-08-06T03:06:17;182.02;;;164.50;;
16804;SDS011;8520;50.102;20.010;2023-08-06T03:08:48;179.60;;;161.52;;
16804;SDS011;8520;50.102;20.010;2023-08-06T03:11:16;175.65;;;158.00;;
16804;SDS011;8520;50.102;20.010;2023-08-06T03:13:45;171.95;;;157.52;;
16804;SDS011;8520;50.102;20.010;2023-08-06T03:16:14;171.52;;;156.88;;
16804;SDS011;8520;50.102;20.010;2023-08-06T03:18:42;172.98;;;158.88;;
16804;SDS011;8520;50.102;20.010;2023-08-06T03:21:11;169.73;;;155.73;;
16804;SDS011;8520;50.102;20.010;2023-08-06T03:23:39;166.43;;;152.77;;
16804;SDS011;8520;50.102;20.010;2023-08-06T03:26:08;165.88;;;152.20;;
16804;SDS011;8520;50.102;20.010;2023-08-06T03:28:36;163.82;;;150.40;;
16804;SDS011;8520;50.102;20.010;2023-08-06T03:31:05;163.18;;;149.88;;
16804;SDS011;8520;50.102;20.010;2023-08-06T03:33:41;157.63;;;145.23;;
16804;SDS011;8520;50.102;20.010;2023-08-06T03:36:14;160.90;;;148.30;;
16804;SDS011;8520;50.102;20.010;2023-08-06T03:38:42;159.80;;;146.80;;
16804;SDS011;8520;50.102;20.010;2023-08-06T03:41:13;157.45;;;145.05;;
16804;SDS011;8520;50.102;20.010;2023-08-06T03:43:41;161.20;;;147.82;;
16804;SDS011;8520;50.102;20.010;2023-08-06T03:46:15;156.52;;;144.30;;
16804;SDS011;8520;50.102;20.010;2023-08-06T03:48:45;155.48;;;143.80;;
16804;SDS011;8520;50.102;20.010;2023-08-06T03:51:12;157.70;;;145.30;;
16804;SDS011;8520;50.102;20.010;2023-08-06T03:53:43;154.55;;;142.73;;
16804;SDS011;8520;50.102;20.010;2023-08-06T03:56:11;155.40;;;143.45;;
16804;SDS011;8520;50.102;20.010;2023-08-06T03:58:39;158.15;;;145.10;;
16804;SDS011;8520;50.102;20.010;2023-08-06T04:01:07;155.23;;;143.25;;
16804;SDS011;8520;50.102;20.010;2023-08-06T04:03:47;156.60;;;144.43;;
16804;SDS011;8520;50.102;20.010;2023-08-06T04:06:15;153.75;;;142.05;;
16804;SDS011;8520;50.102;20.010;2023-08-06T04:08:43;154.05;;;142.30;;
16804;SDS011;8520;50.102;20.010;2023-08-06T04:11:11;153.60;;;141.50;;
16804;SDS011;8520;50.102;20.010;2023-08-06T04:13:42;151.98;;;140.60;;
16804;SDS011;8520;50.102;20.010;2023-08-06T04:16:10;150.85;;;139.80;;
16804;SDS011;8520;50.102;20.010;2023-08-06T04:18:38;152.52;;;140.55;;
16804;SDS011;8520;50.102;20.010;2023-08-06T04:21:07;154.07;;;141.93;;
16804;SDS011;8520;50.102;20.010;2023-08-06T04:23:35;150.63;;;139.25;;
16804;SDS011;8520;50.102;20.010;2023-08-06T04:26:05;150.38;;;139.48;;
16804;SDS011;8520;50.102;20.010;2023-08-06T04:28:35;149.85;;;138.63;;
16804;SDS011;8520;50.102;20.010;2023-08-06T04:31:03;151.40;;;139.88;;
16804;SDS011;8520;50.102;20.010;2023-08-06T04:33:32;145.70;;;134.52;;
16804;SDS011;8520;50.102;20.010;2023-08-06T04:36:09;144.68;;;133.82;;
16804;SDS011;8520;50.102;20.010;2023-08-06T04:38:37;144.35;;;134.00;;
16804;SDS011;8520;50.102;20.010;2023-08-06T04:41:05;142.35;;;132.38;;
16804;SDS011;8520;50.102;20.010;2023-08-06T04:43:34;142.50;;;132.63;;
16804;SDS011;8520;50.102;20.010;2023-08-06T04:46:02;140.85;;;130.95;;
16804;SDS011;8520;50.102;20.010;2023-08-06T04:48:30;143.27;;;133.02;;
16804;SDS011;8520;50.102;20.010;2023-08-06T04:50:57;141.95;;;131.95;;
16804;SDS011;8520;50.102;20.010;2023-08-06T04:53:27;140.55;;;130.82;;
16804;SDS011;8520;50.102;20.010;2023-08-06T04:55:55;140.23;;;130.63;;
16804;SDS011;8520;50.102;20.010;2023-08-06T04:58:23;141.40;;;131.65;;
16804;SDS011;8520;50.102;20.010;2023-08-06T05:00:51;140.52;;;130.65;;
16804;SDS011;8520;50.102;20.010;2023-08-06T05:03:18;139.55;;;129.70;;
16804;SDS011;8520;50.102;20.010;2023-08-06T05:05:46;138.82;;;129.35;;
16804;SDS011;8520;50.102;20.010;2023-08-06T05:08:14;139.30;;;129.23;;
16804;SDS011;8520;50.102;20.010;2023-08-06T05:10:45;139.70;;;129.80;;
16804;SDS011;8520;50.102;20.010;2023-08-06T05:13:13;139.15;;;129.32;;
16804;SDS011;8520;50.102;20.010;2023-08-06T05:15:41;139.18;;;129.48;;
16804;SDS011;8520;50.102;20.010;2023-08-06T05:18:09;137.45;;;127.75;;
16804;SDS011;8520;50.102;20.010;2023-08-06T05:20:38;137.50;;;128.13;;
16804;SDS011;8520;50.102;20.010;2023-08-06T05:23:06;137.32;;;127.78;;
16804;SDS011;8520;50.102;20.010;2023-08-06T05:25:34;136.23;;;127.07;;
16804;SDS011;8520;50.102;20.010;2023-08-06T05:28:03;137.30;;;127.70;;
16804;SDS011;8520;50.102;20.010;2023-08-06T05:30:31;136.85;;;127.55;;
16804;SDS011;8520;50.102;20.010;2023-08-06T05:32:59;135.60;;;126.50;;
16804;SDS011;8520;50.102;20.010;2023-08-06T05:35:27;134.95;;;125.50;;
16804;SDS011;8520;50.102;20.010;2023-08-06T05:37:55;136.50;;;127.05;;
16804;SDS011;8520;50.102;20.010;2023-08-06T05:40:23;136.55;;;127.18;;
16804;SDS011;8520;50.102;20.010;2023-08-06T05:42:52;137.05;;;127.60;;
16804;SDS011;8520;50.102;20.010;2023-08-06T05:45:21;137.15;;;127.55;;
16804;SDS011;8520;50.102;20.010;2023-08-06T05:47:49;137.68;;;128.43;;
16804;SDS011;8520;50.102;20.010;2023-08-06T05:50:17;138.13;;;128.73;;
16804;SDS011;8520;50.102;20.010;2023-08-06T05:52:45;136.82;;;127.57;;
16804;SDS011;8520;50.102;20.010;2023-08-06T05:55:13;136.05;;;126.93;;
16804;SDS011;8520;50.102;20.010;2023-08-06T05:57:41;136.98;;;127.80;;
16804;SDS011;8520;50.102;20.010;2023-08-06T06:00:09;135.57;;;126.57;;
16804;SDS011;8520;50.102;20.010;2023-08-06T06:02:42;135.15;;;125.90;;
16804;SDS011;8520;50.102;20.010;2023-08-06T06:05:09;133.52;;;124.75;;
16804;SDS011;8520;50.102;20.010;2023-08-06T06:07:37;133.80;;;124.97;;
16804;SDS011;8520;50.102;20.010;2023-08-06T06:10:06;133.57;;;124.68;;
16804;SDS011;8520;50.102;20.010;2023-08-06T06:12:34;133.43;;;124.68;;
16804;SDS011;8520;50.102;20.010;2023-08-06T06:15:02;134.43;;;125.53;;
16804;SDS011;8520;50.102;20.010;2023-08-06T06:17:30;132.90;;;124.10;;
16804;SDS011;8520;50.102;20.010;2023-08-06T06:19:59;132.20;;;123.38;;
16804;SDS011;8520;50.102;20.010;2023-08-06T06:22:27;131.90;;;123.38;;
16804;SDS011;8520;50.102;20.010;2023-08-06T06:24:55;132.48;;;123.78;;
16804;SDS011;8520;50.102;20.010;2023-08-06T06:27:23;131.07;;;122.50;;
16804;SDS011;8520;50.102;20.010;2023-08-06T06:29:51;131.65;;;122.90;;
16804;SDS011;8520;50.102;20.010;2023-08-06T06:32:21;129.10;;;120.47;;
16804;SDS011;8520;50.102;20.010;2023-08-06T06:34:49;128.48;;;120.18;;
16804;SDS011;8520;50.102;20.010;2023-08-06T06:37:18;131.77;;;122.43;;
16804;SDS011;8520;50.102;20.010;2023-08-06T06:39:46;127.53;;;118.97;;
16804;SDS011;8520;50.102;20.010;2023-08-06T06:42:14;127.97;;;119.68;;
16804;SDS011;8520;50.102;20.010;2023-08-06T06:44:46;130.18;;;121.35;;
16804;SDS011;8520;50.102;20.010;2023-08-06T06:47:14;190.45;;;129.70;;
16804;SDS011;8520;50.102;20.010;2023-08-06T06:49:42;134.18;;;124.10;;
16804;SDS011;8520;50.102;20.010;2023-08-06T06:52:10;135.73;;;126.13;;
16804;SDS011;8520;50.102;20.010;2023-08-06T06:54:39;143.60;;;129.60;;
16804;SDS011;8520;50.102;20.010;2023-08-06T06:57:07;146.65;;;130.20;;
16804;SDS011;8520;50.102;20.010;2023-08-06T06:59:35;140.00;;;128.25;;
16804;SDS011;8520;50.102;20.010;2023-08-06T07:02:03;140.10;;;129.32;;
16804;SDS011;8520;50.102;20.010;2023-08-06T07:04:31;136.95;;;127.53;;
16804;SDS011;8520;50.102;20.010;2023-08-06T07:06:58;136.93;;;127.35;;
16804;SDS011;8520;50.102;20.010;2023-08-06T07:09:26;138.75;;;129.05;;
16804;SDS011;8520;50.102;20.010;2023-08-06T07:11:56;137.60;;;128.00;;
16804;SDS011;8520;50.102;20.010;2023-08-06T07:14:24;137.73;;;128.05;;
16804;SDS011;8520;50.102;20.010;2023-08-06T07:16:52;181.38;;;133.70;;
16804;SDS011;8520;50.102;20.010;2023-08-06T07:19:20;136.27;;;126.75;;
16804;SDS011;8520;50.102;20.010;2023-08-06T07:21:48;136.70;;;126.57;;
16804;SDS011;8520;50.102;20.010;2023-08-06T07:24:16;133.75;;;124.53;;
16804;SDS011;8520;50.102;20.010;2023-08-06T07:26:43;132.45;;;123.47;;
16804;SDS011;8520;50.102;20.010;2023-08-06T07:29:13;134.77;;;125.68;;
16804;SDS011;8520;50.102;20.010;2023-08-06T07:31:46;134.88;;;125.65;;
16804;SDS011;8520;50.102;20.010;2023-08-06T07:34:14;133.70;;;124.57;;
16804;SDS011;8520;50.102;20.010;2023-08-06T07:36:43;133.07;;;124.18;;
16804;SDS011;8520;50.102;20.010;2023-08-06T07:39:11;132.70;;;123.38;;
16804;SDS011;8520;50.102;20.010;2023-08-06T07:41:39;131.65;;;122.90;;
16804;SDS011;8520;50.102;20.010;2023-08-06T07:44:08;131.38;;;122.65;;
16804;SDS011;8520;50.102;20.010;2023-08-06T07:46:37;133.52;;;124.45;;
16804;SDS011;8520;50.102;20.010;2023-08-06T07:49:06;239.98;;;133.70;;
16804;SDS011;8520;50.102;20.010;2023-08-06T07:51:34;137.10;;;127.55;;
16804;SDS011;8520;50.102;20.010;2023-08-06T07:54:01;131.80;;;122.68;;
16804;SDS011;8520;50.102;20.010;2023-08-06T07:56:29;106.63;;;100.35;;
16804;SDS011;8520;50.102;20.010;2023-08-06T07:58:57;98.90;;;93.38;;
16804;SDS011;8520;50.102;20.010;2023-08-06T08:01:25;97.15;;;91.75;;
16804;SDS011;8520;50.102;20.010;2023-08-06T08:03:55;95.47;;;90.28;;
16804;SDS011;8520;50.102;20.010;2023-08-06T08:06:23;94.85;;;89.65;;
16804;SDS011;8520;50.102;20.010;2023-08-06T08:08:50;95.78;;;90.57;;
16804;SDS011;8520;50.102;20.010;2023-08-06T08:11:20;95.90;;;90.60;;
16804;SDS011;8520;50.102;20.010;2023-08-06T08:13:48;95.50;;;90.30;;
16804;SDS011;8520;50.102;20.010;2023-08-06T08:16:16;95.90;;;90.70;;
16804;SDS011;8520;50.102;20.010;2023-08-06T08:18:43;99.57;;;94.07;;
16804;SDS011;8520;50.102;20.010;2023-08-06T08:21:13;100.93;;;95.32;;
16804;SDS011;8520;50.102;20.010;2023-08-06T08:23:41;101.43;;;95.75;;
16804;SDS011;8520;50.102;20.010;2023-08-06T08:26:10;101.72;;;96.03;;
16804;SDS011;8520;50.102;20.010;2023-08-06T08:28:38;102.53;;;96.72;;
16804;SDS011;8520;50.102;20.010;2023-08-06T08:31:07;103.07;;;97.20;;
16804;SDS011;8520;50.102;20.010;2023-08-06T08:33:35;102.75;;;96.85;;
16804;SDS011;8520;50.102;20.010;2023-08-06T08:36:03;101.75;;;96.05;;
16804;SDS011;8520;50.102;20.010;2023-08-06T08:38:33;101.43;;;95.70;;
16804;SDS011;8520;50.102;20.010;2023-08-06T08:41:01;101.32;;;95.55;;
16804;SDS011;8520;50.102;20.010;2023-08-06T08:43:29;101.10;;;95.43;;
16804;SDS011;8520;50.102;20.010;2023-08-06T08:45:57;102.85;;;97.05;;
16804;SDS011;8520;50.102;20.010;2023-08-06T08:48:26;104.10;;;98.10;;
16804;SDS011;8520;50.102;20.010;2023-08-06T08:50:55;103.90;;;98.00;;
16804;SDS011;8520;50.102;20.010;2023-08-06T08:53:23;103.15;;;97.25;;
16804;SDS011;8520;50.102;20.010;2023-08-06T08:55:52;102.53;;;96.72;;
16804;SDS011;8520;50.102;20.010;2023-08-06T08:58:20;102.30;;;96.50;;
16804;SDS011;8520;50.102;20.010;2023-08-06T09:00:48;104.75;;;98.75;;
16804;SDS011;8520;50.102;20.010;2023-08-06T09:03:17;107.03;;;100.82;;
16804;SDS011;8520;50.102;20.010;2023-08-06T09:05:45;108.22;;;101.93;;
16804;SDS011;8520;50.102;20.010;2023-08-06T09:08:17;107.97;;;101.68;;
16804;SDS011;8520;50.102;20.010;2023-08-06T09:10:46;107.85;;;101.57;;
16804;SDS011;8520;50.102;20.010;2023-08-06T09:13:17;107.30;;;101.03;;
16804;SDS011;8520;50.102;20.010;2023-08-06T09:15:46;107.65;;;101.45;;
16804;SDS011;8520;50.102;20.010;2023-08-06T09:18:24;108.13;;;101.72;;
16804;SDS011;8520;50.102;20.010;2023-08-06T09:20:52;111.07;;;104.47;;
16804;SDS011;8520;50.102;20.010;2023-08-06T09:23:20;111.65;;;105.05;;
16804;SDS011;8520;50.102;20.010;2023-08-06T09:25:48;112.60;;;105.80;;
16804;SDS011;8520;50.102;20.010;2023-08-06T09:28:17;111.93;;;105.32;;
16804;SDS011;8520;50.102;20.010;2023-08-06T09:30:46;112.00;;;105.30;;
16804;SDS011;8520;50.102;20.010;2023-08-06T09:33:17;112.13;;;105.43;;
16804;SDS011;8520;50.102;20.010;2023-08-06T09:35:45;110.65;;;104.15;;
16804;SDS011;8520;50.102;20.010;2023-08-06T09:38:13;110.63;;;104.05;;
16804;SDS011;8520;50.102;20.010;2023-08-06T09:40:42;109.05;;;102.65;;
16804;SDS011;8520;50.102;20.010;2023-08-06T09:43:10;109.47;;;103.07;;
16804;SDS011;8520;50.102;20.010;2023-08-06T09:45:40;109.80;;;103.30;;
16804;SDS011;8520;50.102;20.010;2023-08-06T09:48:09;111.03;;;104.43;;
16804;SDS011;8520;50.102;20.010;2023-08-06T09:50:38;111.07;;;104.47;;
16804;SDS011;8520;50.102;20.010;2023-08-06T09:53:08;110.70;;;104.20;;
16804;SDS011;8520;50.102;20.010;2023-08-06T09:55:35;110.10;;;103.63;;
16804;SDS011;8520;50.102;20.010;2023-08-06T09:58:04;109.55;;;103.07;;
16804;SDS011;8520;50.102;20.010;2023-08-06T10:00:32;110.47;;;103.97;;
16804;SDS011;8520;50.102;20.010;2023-08-06T10:03:06;108.85;;;102.45;;
16804;SDS011;8520;50.102;20.010;2023-08-06T10:05:35;107.68;;;101.25;;
16804;SDS011;8520;50.102;20.010;2023-08-06T10:08:03;104.97;;;98.97;;
16804;SDS011;8520;50.102;20.010;2023-08-06T10:10:33;103.97;;;98.07;;
16804;SDS011;8520;50.102;20.010;2023-08-06T10:13:02;103.00;;;97.20;;
16804;SDS011;8520;50.102;20.010;2023-08-06T10:15:31;103.40;;;97.55;;
16804;SDS011;8520;50.102;20.010;2023-08-06T10:17:59;101.28;;;95.68;;
16804;SDS011;8520;50.102;20.010;2023-08-06T10:20:33;100.18;;;94.65;;
16804;SDS011;8520;50.102;20.010;2023-08-06T10:23:01;102.72;;;96.93;;
16804;SDS011;8520;50.102;20.010;2023-08-06T10:25:30;103.32;;;97.43;;
16804;SDS011;8520;50.102;20.010;2023-08-06T10:27:58;102.40;;;96.63;;
16804;SDS011;8520;50.102;20.010;2023-08-06T10:30:26;104.25;;;98.35;;
16804;SDS011;8520;50.102;20.010;2023-08-06T10:32:55;103.82;;;97.93;;
16804;SDS011;8520;50.102;20.010;2023-08-06T10:35:27;104.82;;;98.82;;
16804;SDS011;8520;50.102;20.010;2023-08-06T10:38:01;105.85;;;99.80;;
16804;SDS011;8520;50.102;20.010;2023-08-06T10:40:31;105.75;;;99.68;;
16804;SDS011;8520;50.102;20.010;2023-08-06T10:42:59;104.65;;;98.65;;
16804;SDS011;8520;50.102;20.010;2023-08-06T10:45:27;104.20;;;98.20;;
16804;SDS011;8520;50.102;20.010;2023-08-06T10:47:57;104.68;;;98.68;;
16804;SDS011;8520;50.102;20.010;2023-08-06T10:50:25;103.72;;;97.82;;
16804;SDS011;8520;50.102;20.010;2023-08-06T10:52:53;104.13;;;98.13;;
16804;SDS011;8520;50.102;20.010;2023-08-06T10:55:26;104.45;;;98.20;;
16804;SDS011;8520;50.102;20.010;2023-08-06T10:57:54;105.43;;;99.32;;
16804;SDS011;8520;50.102;20.010;2023-08-06T11:00:23;106.78;;;100.57;;
16804;SDS011;8520;50.102;20.010;2023-08-06T11:02:51;107.40;;;101.18;;
16804;SDS011;8520;50.102;20.010;2023-08-06T11:05:19;106.22;;;100.13;;
16804;SDS011;8520;50.102;20.010;2023-08-06T11:07:47;104.65;;;98.65;;
16804;SDS011;8520;50.102;20.010;2023-08-06T11:10:17;102.72;;;96.82;;
16804;SDS011;8520;50.102;20.010;2023-08-06T11:12:46;102.22;;;96.45;;
16804;SDS011;8520;50.102;20.010;2023-08-06T11:15:14;99.55;;;94.05;;
16804;SDS011;8520;50.102;20.010;2023-08-06T11:17:42;97.10;;;91.80;;
16804;SDS011;8520;50.102;20.010;2023-08-06T11:20:10;96.47;;;91.28;;
16804;SDS011;8520;50.102;20.010;2023-08-06T11:22:41;96.35;;;91.05;;
16804;SDS011;8520;50.102;20.010;2023-08-06T11:25:09;93.70;;;88.70;;
16804;SDS011;8520;50.102;20.010;2023-08-06T11:27:37;89.28;;;84.68;;
16804;SDS011;8520;50.102;20.010;2023-08-06T11:30:07;86.93;;;82.53;;
16804;SDS011;8520;50.102;20.010;2023-08-06T11:32:44;84.35;;;80.15;;
16804;SDS011;8520;50.102;20.010;2023-08-06T11:35:13;83.10;;;78.97;;
16804;SDS011;8520;50.102;20.010;2023-08-06T11:37:43;81.90;;;77.82;;
16804;SDS011;8520;50.102;20.010;2023-08-06T11:40:11;82.25;;;78.20;;
16804;SDS011;8520;50.102;20.010;2023-08-06T11:42:39;82.70;;;78.50;;
16804;SDS011;8520;50.102;20.010;2023-08-06T11:45:09;82.63;;;78.50;;
16804;SDS011;8520;50.102;20.010;2023-08-06T11:47:38;84.60;;;80.30;;
16804;SDS011;8520;50.102;20.010;2023-08-06T11:50:06;85.90;;;81.55;;
16804;SDS011;8520;50.102;20.010;2023-08-06T11:52:34;86.60;;;82.20;;
16804;SDS011;8520;50.102;20.010;2023-08-06T11:55:02;86.00;;;81.60;;
16804;SDS011;8520;50.102;20.010;2023-08-06T11:57:33;85.82;;;81.53;;
16804;SDS011;8520;50.102;20.010;2023-08-06T12:00:02;86.15;;;81.70;;
16804;SDS011;8520;50.102;20.010;2023-08-06T12:02:39;87.63;;;83.13;;
16804;SDS011;8520;50.102;20.010;2023-08-06T12:05:11;88.30;;;83.70;;
16804;SDS011;8520;50.102;20.010;2023-08-06T12:07:40;89.35;;;84.75;;
16804;SDS011;8520;50.102;20.010;2023-08-06T12:10:09;90.82;;;85.93;;
16804;SDS011;8520;50.102;20.010;2023-08-06T12:12:37;93.32;;;88.22;;
16804;SDS011;8520;50.102;20.010;2023-08-06T12:15:05;94.47;;;89.38;;
16804;SDS011;8520;50.102;20.010;2023-08-06T12:17:34;95.57;;;90.38;;
16804;SDS011;8520;50.102;20.010;2023-08-06T12:20:04;97.65;;;92.28;;
16804;SDS011;8520;50.102;20.010;2023-08-06T12:22:32;98.32;;;92.93;;
16804;SDS011;8520;50.102;20.010;2023-08-06T12:25:02;98.13;;;92.72;;
16804;SDS011;8520;50.102;20.010;2023-08-06T12:27:32;100.90;;;95.20;;
16804;SDS011;8520;50.102;20.010;2023-08-06T12:30:00;102.40;;;96.60;;
16804;SDS011;8520;50.102;20.010;2023-08-06T12:32:30;103.97;;;97.97;;
16804;SDS011;8520;50.102;20.010;2023-08-06T12:34:58;106.40;;;100.20;;
16804;SDS011;8520;50.102;20.010;2023-08-06T12:37:28;108.53;;;102.13;;
16804;SDS011;8520;50.102;20.010;2023-08-06T12:39:56;108.68;;;102.28;;
16804;SDS011;8520;50.102;20.010;2023-08-06T12:42:24;110.05;;;103.25;;
16804;SDS011;8520;50.102;20.010;2023-08-06T12:44:52;109.53;;;103.13;;
16804;SDS011;8520;50.102;20.010;2023-08-06T12:47:20;109.55;;;103.15;;
16804;SDS011;8520;50.102;20.010;2023-08-06T12:49:48;111.13;;;104.53;;
16804;SDS011;8520;50.102;20.010;2023-08-06T12:52:16;111.55;;;104.85;;
16804;SDS011;8520;50.102;20.010;2023-08-06T12:54:47;111.60;;;104.85;;
16804;SDS011;8520;50.102;20.010;2023-08-06T12:57:15;112.38;;;105.68;;
16804;SDS011;8520;50.102;20.010;2023-08-06T12:59:44;114.28;;;107.38;;
16804;SDS011;8520;50.102;20.010;2023-08-06T13:02:11;115.07;;;108.07;;
16804;SDS011;8520;50.102;20.010;2023-08-06T13:04:39;115.38;;;108.32;;
16804;SDS011;8520;50.102;20.010;2023-08-06T13:07:07;115.18;;;108.18;;
16804;SDS011;8520;50.102;20.010;2023-08-06T13:09:35;114.25;;;107.28;;
16804;SDS011;8520;50.102;20.010;2023-08-06T13:12:05;115.78;;;108.78;;
16804;SDS011;8520;50.102;20.010;2023-08-06T13:14:33;116.07;;;108.97;;
16804;SDS011;8520;50.102;20.010;2023-08-06T13:17:01;117.05;;;109.88;;
16804;SDS011;8520;50.102;20.010;2023-08-06T13:19:29;116.50;;;109.40;;
16804;SDS011;8520;50.102;20.010;2023-08-06T13:22:00;116.90;;;109.80;;
16804;SDS011;8520;50.102;20.010;2023-08-06T13:24:29;117.80;;;110.60;;
16804;SDS011;8520;50.102;20.010;2023-08-06T13:26:57;117.60;;;110.40;;
16804;SDS011;8520;50.102;20.010;2023-08-06T13:29:27;119.03;;;111.70;;
16804;SDS011;8520;50.102;20.010;2023-08-06T13:31:55;120.27;;;112.77;;
16804;SDS011;8520;50.102;20.010;2023-08-06T13:34:23;120.30;;;112.75;;
16804;SDS011;8520;50.102;20.010;2023-08-06T13:36:51;121.07;;;113.57;;
16804;SDS011;8520;50.102;20.010;2023-08-06T13:39:19;120.80;;;113.30;;
16804;SDS011;8520;50.102;20.010;2023-08-06T13:41:47;120.93;;;113.43;;
16804;SDS011;8520;50.102;20.010;2023-08-06T13:44:15;120.72;;;113.22;;
16804;SDS011;8520;50.102;20.010;2023-08-06T13:46:45;120.32;;;112.85;;
16804;SDS011;8520;50.102;20.010;2023-08-06T13:49:13;122.68;;;115.07;;
16804;SDS011;8520;50.102;20.010;2023-08-06T13:51:41;121.28;;;113.70;;
16804;SDS011;8520;50.102;20.010;2023-08-06T13:54:09;120.90;;;113.43;;
16804;SDS011;8520;50.102;20.010;2023-08-06T13:56:36;119.65;;;112.25;;
16804;SDS011;8520;50.102;20.010;2023-08-06T13:59:04;120.28;;;112.88;;
16804;SDS011;8520;50.102;20.010;2023-08-06T14:01:33;121.07;;;113.57;;
16804;SDS011;8520;50.102;20.010;2023-08-06T14:04:18;123.28;;;115.57;;
16804;SDS011;8520;50.102;20.010;2023-08-06T14:06:47;121.15;;;113.65;;
16804;SDS011;8520;50.102;20.010;2023-08-06T14:09:15;117.30;;;110.05;;
16804;SDS011;8520;50.102;20.010;2023-08-06T14:11:45;115.10;;;108.10;;